Time;durP1;ratioP1;P1;durP2;ratioP2;P2;SDS_P1;SDS_P2;PMS_P1;PMS_P2;Temp;Humidity;BMP_temperature;BMP_pressure;BME280_temperature;BME280_humidity;BME280_pressure;Samples;Min_cycle;Max_cycle;Signal;HPM_P1;HPM_P2
2022/10/14 05:07:07;;;;;;;18.75;9.13;;;14.30;99.90;;;;;;6263482;22;1323218;-89
2022/10/14 05:09:54;;;;;;;20.77;9.02;;;14.30;99.90;;;;;;6309568;22;20441;-91
2022/10/14 05:16:42;;;;;;;;;;;;;;;;;;;;;
2022/10/14 05:26:02;;;;;;;;;;;;;;;;;;;;;
2022/10/14 05:28:40;;;;;;;;;;;;;;;;;;;;;
2022/10/14 06:39:43;;;;;;;23.02;12.27;;;;;;;;;;5562433;22;16070604;-91
2022/10/14 06:43:00;;;;;;;;;;;;;;;;;;;;;
2022/10/14 06:45:56;;;;;;;;;;;;;;;;;;;;;
2022/10/14 06:48:32;;;;;;;28.20;11.27;;;14.20;99.90;;;;;;6313748;22;20098;-90
2022/10/14 06:51:04;;;;;;;37.13;11.90;;;14.10;99.90;;;;;;6285229;22;20359;-91
2022/10/14 06:53:30;;;;;;;16.83;9.98;;;;;;;;;;6285028;22;20003;-89
2022/10/14 06:56:18;;;;;;;17.83;9.70;;;14.10;99.90;;;;;;6284993;22;19999;-91
2022/10/14 07:10:50;;;;;;;;;;;;;;;;;;;;;
2022/10/14 07:13:27;;;;;;;16.40;9.35;;;14.10;99.90;;;;;;5812965;24;20345;-92
2022/10/14 07:17:07;;;;;;;;;;;;;;;;;;;;;
2022/10/14 07:20:18;;;;;;;;;;;;;;;;;;;;;
2022/10/14 07:50:41;;;;;;;;;;;;;;;;;;;;;
2022/10/14 07:53:30;;;;;;;16.98;7.30;;;14.10;99.90;;;;;;5109576;28;20045;-92
2022/10/14 07:56:27;;;;;;;15.88;7.25;;;14.20;99.90;;;;;;5087074;28;20020;-92
2022/10/14 07:59:22;;;;;;;21.38;7.47;;;14.30;99.90;;;;;;5088186;28;20032;-94
2022/10/14 08:02:08;;;;;;;17.48;7.30;;;14.30;99.90;;;;;;5090350;28;20039;-93
2022/10/14 08:04:55;;;;;;;15.32;7.32;;;14.50;99.90;;;;;;5063852;28;20037;-91
2022/10/14 08:07:23;;;;;;;15.95;7.82;;;14.40;99.90;;;;;;5069608;28;20539;-93
2022/10/14 08:12:56;;;;;;;12.50;7.05;;;;;;;;;;4990279;28;20031;-92
2022/10/14 08:15:37;;;;;;;;;;;;;;;;;;;;;
2022/10/14 08:18:04;;;;;;;10.52;6.32;;;14.50;99.90;;;;;;5038809;28;20045;-90
2022/10/14 08:23:35;;;;;;;;;;;;;;;;;;;;;
2022/10/14 08:26:06;;;;;;;8.70;6.47;;;14.70;99.90;;;;;;5065512;28;20371;-93
2022/10/14 08:29:25;;;;;;;;;;;;;;;;;;;;;
2022/10/14 08:38:25;;;;;;;19.20;7.95;;;14.90;99.90;;;;;;5090973;28;20032;-92
2022/10/14 08:51:02;;;;;;;;;;;;;;;;;;;;;
2022/10/14 08:54:04;;;;;;;;;;;;;;;;;;;;;
2022/10/14 08:56:41;;;;;;;12.45;9.00;;;15.30;99.90;;;;;;5091815;28;20341;-90
2022/10/14 08:59:23;;;;;;;14.45;8.10;;;15.40;99.90;;;;;;5074846;28;20047;-93
2022/10/14 09:02:30;;;;;;;24.73;9.60;;;15.40;99.90;;;;;;5066969;28;20027;-91
2022/10/14 09:04:58;;;;;;;15.30;9.85;;;15.40;99.90;;;;;;5074688;28;20115;-92
2022/10/14 09:07:24;;;;;;;14.35;10.38;;;;;;;;;;5075591;28;20028;-92
2022/10/14 09:10:14;;;;;;;19.45;10.38;;;15.40;99.90;;;;;;5068901;28;20026;-93
2022/10/14 09:12:42;;;;;;;19.52;11.23;;;15.70;99.90;;;;;;5060095;28;20520;-92
2022/10/14 09:15:14;;;;;;;22.65;12.43;;;16.30;99.90;;;;;;5073232;28;20017;-92
2022/10/14 09:18:14;;;;;;;23.58;11.70;;;15.80;99.90;;;;;;5073186;28;20032;-94
2022/10/14 09:21:02;;;;;;;27.75;14.40;;;16.00;99.90;;;;;;5074808;28;20024;-94
2022/10/14 09:23:28;;;;;;;24.77;13.48;;;;;;;;;;5072761;28;20073;-92
2022/10/14 09:26:18;;;;;;;29.35;15.43;;;16.10;99.90;;;;;;5071035;28;20038;-90
2022/10/14 09:28:44;;;;;;;31.20;15.43;;;16.20;99.90;;;;;;5060253;28;20023;-91
2022/10/14 09:31:12;;;;;;;26.90;14.50;;;16.40;99.90;;;;;;5088223;28;20043;-91
2022/10/14 09:33:39;;;;;;;30.70;13.33;;;16.30;99.90;;;;;;5091280;28;20024;-92
2022/10/14 09:36:17;;;;;;;22.50;10.43;;;16.40;99.90;;;;;;5073493;28;20286;-90
2022/10/14 09:38:51;;;;;;;15.13;8.03;;;15.70;99.90;;;;;;5069134;28;20663;-87
2022/10/14 09:41:21;;;;;;;9.70;6.68;;;16.60;99.90;;;;;;5082148;28;20499;-87
2022/10/14 09:44:24;;;;;;;13.90;6.70;;;16.60;99.90;;;;;;5072074;28;20032;-88
2022/10/14 09:47:01;;;;;;;14.95;6.47;;;16.80;99.90;;;;;;5061010;28;20369;-87
2022/10/14 09:49:39;;;;;;;12.60;6.05;;;16.90;99.90;;;;;;5065804;28;20024;-88
2022/10/14 09:52:06;;;;;;;11.47;5.73;;;16.80;99.90;;;;;;5078995;28;20060;-85
2022/10/14 09:54:32;;;;;;;10.82;4.80;;;;;;;;;;5066224;28;20046;-86
2022/10/14 09:57:07;;;;;;;11.80;5.53;;;17.20;99.90;;;;;;5088351;28;20030;-87
2022/10/14 09:59:48;;;;;;;6.93;4.90;;;17.30;99.90;;;;;;5071375;28;20036;-86
2022/10/14 10:02:43;;;;;;;10.98;4.40;;;17.30;99.90;;;;;;5087930;28;21168;-86
2022/10/14 10:05:23;;;;;;;15.95;4.90;;;17.40;99.90;;;;;;5074040;28;20503;-87
2022/10/14 10:08:13;;;;;;;10.18;3.97;;;17.60;99.90;;;;;;5069637;28;20026;-86
2022/10/14 10:10:39;;;;;;;15.52;5.35;;;;;;;;;;5089825;28;20032;-88
2022/10/14 10:13:30;;;;;;;15.15;5.28;;;17.90;99.90;;;;;;5070772;28;20381;-88
2022/10/14 10:16:02;;;;;;;14.80;4.57;;;18.10;99.90;;;;;;5070756;28;20373;-85
2022/10/14 10:18:28;;;;;;;19.13;4.47;;;;;;;;;;5070775;28;20039;-86
2022/10/14 10:21:05;;;;;;;23.67;5.10;;;18.20;99.90;;;;;;5070607;28;20035;-85
2022/10/14 10:23:33;;;;;;;18.17;4.30;;;18.30;99.90;;;;;;5088099;28;20345;-86
2022/10/14 10:26:16;;;;;;;;;;;18.20;99.90;;;;;;5087322;28;20365;-89
2022/10/14 10:28:47;;;;;;;25.23;4.78;;;18.30;99.90;;;;;;5086814;28;20391;-86
2022/10/14 10:31:37;;;;;;;17.05;3.53;;;18.20;99.90;;;;;;5088651;28;20028;-86
2022/10/14 10:34:32;;;;;;;16.83;3.80;;;18.10;99.90;;;;;;5068938;28;20029;-86
2022/10/14 10:37:18;;;;;;;13.05;3.92;;;18.20;99.90;;;;;;5085082;28;20028;-86
2022/10/14 10:39:58;;;;;;;12.13;3.95;;;18.30;99.90;;;;;;5069691;28;20407;-86
2022/10/14 10:42:34;;;;;;;16.17;3.80;;;18.20;99.90;;;;;;5073422;28;20020;-87
2022/10/14 10:45:28;;;;;;;11.77;3.85;;;18.30;99.90;;;;;;5069587;28;20032;-86
2022/10/14 10:48:34;;;;;;;17.40;4.30;;;18.40;99.90;;;;;;5033026;28;20040;-86
2022/10/14 10:51:15;;;;;;;9.32;3.88;;;18.30;99.90;;;;;;5089018;28;20515;-86
2022/10/14 10:53:54;;;;;;;18.85;3.90;;;18.30;99.90;;;;;;5092489;28;20016;-86
2022/10/14 10:56:19;;;;;;;7.57;3.40;;;18.30;99.90;;;;;;5075068;28;20339;-86
2022/10/14 10:59:02;;;;;;;18.92;3.90;;;18.20;99.90;;;;;;5088512;28;20424;-86
2022/10/14 11:01:30;;;;;;;23.00;5.22;;;18.30;99.90;;;;;;5088808;28;20039;-87
2022/10/14 11:04:16;;;;;;;16.98;4.22;;;18.30;99.90;;;;;;5088099;28;20028;-87
2022/10/14 11:13:24;;;;;;;16.70;4.30;;;18.50;99.90;;;;;;5083291;28;20069;-85
2022/10/14 11:16:22;;;;;;;14.10;3.78;;;18.60;99.90;;;;;;5077217;28;20030;-87
2022/10/14 11:19:09;;;;;;;18.25;3.25;;;18.70;99.90;;;;;;5061054;28;20557;-88
2022/10/14 11:21:43;;;;;;;17.73;2.93;;;18.50;99.90;;;;;;5059135;28;20040;-88
2022/10/14 11:24:28;;;;;;;15.82;3.42;;;18.50;99.90;;;;;;5078869;28;20863;-88
2022/10/14 11:27:09;;;;;;;15.48;3.25;;;18.40;99.90;;;;;;5079383;28;20024;-89
2022/10/14 11:30:02;;;;;;;17.08;3.33;;;18.30;99.90;;;;;;5062091;28;20020;-91
2022/10/14 11:33:02;;;;;;;10.95;3.47;;;18.40;99.90;;;;;;5081589;28;20036;-87
2022/10/14 11:35:50;;;;;;;14.35;3.15;;;18.30;99.90;;;;;;5078924;28;20099;-87
2022/10/14 11:38:42;;;;;;;22.40;3.65;;;18.40;99.90;;;;;;5065198;28;20082;-87
2022/10/14 11:41:34;;;;;;;11.02;2.85;;;18.40;99.90;;;;;;5085879;28;20089;-86
2022/10/14 11:44:12;;;;;;;10.73;3.25;;;18.20;99.90;;;;;;5080298;28;20028;-88
2022/10/14 11:46:45;;;;;;;10.30;2.37;;;18.20;99.90;;;;;;5071146;28;20043;-85
2022/10/14 11:49:27;;;;;;;12.95;2.58;;;18.30;99.90;;;;;;5062188;28;20836;-86
2022/10/14 11:52:05;;;;;;;8.50;2.60;;;18.50;99.90;;;;;;5066758;28;20016;-86
2022/10/14 11:54:45;;;;;;;8.65;3.10;;;18.40;99.90;;;;;;5072984;28;20637;-86
2022/10/14 11:57:20;;;;;;;13.70;3.22;;;18.50;99.90;;;;;;5091902;28;20492;-87
2022/10/14 12:00:05;;;;;;;9.85;2.85;;;18.50;99.90;;;;;;5082387;28;20119;-86
2022/10/14 12:02:43;;;;;;;12.60;3.38;;;18.60;99.90;;;;;;5067242;28;20410;-86
2022/10/14 12:05:23;;;;;;;18.17;3.78;;;18.60;99.90;;;;;;5071786;28;20028;-88
2022/10/14 12:08:24;;;;;;;13.60;3.63;;;18.50;99.90;;;;;;5066577;28;20115;-88
2022/10/14 12:50:52;;;;;;;;;;;;;;;;;;;;;
2022/10/14 14:29:26;;;;;;;;;;;;;;;;;;;;;
2022/10/14 14:32:12;;;;;;;;;;;;;;;;;;;;;
2022/10/14 14:42:41;;;;;;;;;;;;;;;;;;;;;
2022/10/14 16:41:33;;;;;;;17.45;9.75;;;16.30;99.90;;;;;;5815727;24;20013;-94
2022/10/14 16:48:14;;;;;;;53.13;23.38;;;16.30;99.90;;;;;;5883590;24;20010;-94
2022/10/14 16:50:39;;;;;;;28.40;14.07;;;;;;;;;;5871711;24;20006;-90
2022/10/14 17:10:09;;;;;;;19.73;14.07;;;15.60;99.90;;;;;;5958143;23;20366;-93
2022/10/14 17:27:03;;;;;;;;;;;;;;;;;;;;;
2022/10/14 17:29:51;;;;;;;53.40;31.50;;;16.50;99.90;;;;;;5764111;24;20082;-93
2022/10/14 17:32:28;;;;;;;;;;;;;;;;;;;;;
2022/10/14 17:38:57;;;;;;;;;;;;;;;;;;;;;
2022/10/14 17:42:03;;;;;;;41.10;22.33;;;16.50;99.90;;;;;;5711362;25;20107;-91
2022/10/14 17:44:38;;;;;;;33.60;16.30;;;16.70;99.90;;;;;;5810089;24;20044;-91
2022/10/14 17:47:07;;;;;;;28.98;16.98;;;16.50;99.90;;;;;;5905018;24;20016;-90
2022/10/14 17:49:35;;;;;;;26.80;14.85;;;;;;;;;;5949182;24;20008;-89
2022/10/14 17:52:01;;;;;;;34.30;15.30;;;;;;;;;;5972150;23;20305;-89
2022/10/14 17:54:29;;;;;;;26.05;14.73;;;16.40;99.90;;;;;;6028565;23;20353;-90
2022/10/14 17:57:04;;;;;;;29.90;12.48;;;;;;;;;;6033488;23;20021;-90
2022/10/14 17:59:50;;;;;;;25.50;12.45;;;16.50;99.90;;;;;;6148794;23;20005;-91
2022/10/14 18:08:16;;;;;;;45.55;24.23;;;;;;;;;;6205097;23;20036;-89
2022/10/14 18:10:42;;;;;;;42.13;20.52;;;;;;;;;;6184024;23;20012;-87
2022/10/14 18:13:19;;;;;;;30.27;19.55;;;16.50;99.90;;;;;;6212414;23;20001;-92
2022/10/14 18:16:06;;;;;;;40.50;21.20;;;;;;;;;;6185024;23;20040;-92
2022/10/14 18:22:05;;;;;;;;;;;;;;;;;;;;;
2022/10/14 18:28:01;;;;;;;40.50;22.02;;;16.40;99.90;;;;;;5978365;24;20331;-90
2022/10/14 18:30:29;;;;;;;34.10;19.27;;;16.40;99.90;;;;;;6099085;23;20359;-93
2022/10/14 18:32:55;;;;;;;34.47;21.23;;;16.60;99.90;;;;;;6177076;23;20009;-93
2022/10/14 18:35:36;;;;;;;;;;;;;;;;;;;;;
2022/10/14 18:38:53;;;;;;;33.90;19.73;;;16.40;99.90;;;;;;6213821;23;20012;-95
2022/10/14 18:44:29;;;;;;;35.22;19.38;;;16.40;99.90;;;;;;6125647;23;20482;-92
2022/10/14 18:54:23;;;;;;;38.28;19.83;;;16.00;99.90;;;;;;5818968;24;20022;-95
